Mark Shell — WDI7434 — position and weather

sailwx.info

Track history (hours):
 
Tides and Currents Weather Stations Pressure Air Temp Water Temp Dewpoint Dewpoint Depression Visibility Wind Speed Wind Dir Waves Ship Positions

Mark Shell

Owner: Kirby Inland Marine LP, Houston, TX. More information available from US FCC via Universal Licensing System and Coast Guard Vessel Documentation Center.

Last reported at 2017-Oct-11 00:00 UTC. Time now 2017-Oct-17 20:32 UTC.
Position N 32°28' W 091°07'.

Length 213 m; draft 3 m.

Type: . MMSI: 367728680.

Date/timePositionNaut miles runAvg speedWind from/ knotsBaromVisibWave heightAir tempDewpointWater temp
2017-Oct-11 00:00N 32°28' W 091°07'3 5.1
2017-Oct-10 23:30N 32°27' W 091°04'2 4.8
2017-Oct-10 23:01N 32°26' W 091°02'2 4.2
2017-Oct-10 22:30N 32°25' W 090°60'3 5.6
2017-Oct-10 22:00N 32°22' W 091°00'3 5.3
2017-Oct-10 21:31N 32°21' W 090°58'2 4.5
2017-Oct-10 21:00N 32°21' W 090°55'2 3.8
2017-Oct-10 20:30N 32°19' W 090°54'3 5.2
2017-Oct-10 20:00N 32°17' W 090°57'3 5.2
2017-Oct-10 19:31N 32°15' W 090°59'3 6.0
2017-Oct-10 19:00N 32°12' W 090°59'3 5.2
2017-Oct-10 18:30N 32°10' W 091°00'2 4.7
2017-Oct-10 18:00N 32°07' W 091°01'2 4.1
2017-Oct-10 17:30N 32°08' W 091°03'2 4.1
2017-Oct-10 17:00N 32°08' W 091°06'6 3.2
2017-Oct-10 15:13N 32°03' W 091°03'2 5.5
2017-Oct-10 14:53N 32°01' W 091°04'  
2017-Oct-07 19:09N 29°50' W 091°60'1 5.6
2017-Oct-07 19:00N 29°50' W 092°01'3 5.1
2017-Oct-07 18:30N 29°49' W 092°03'2 4.5
2017-Oct-07 18:00N 29°48' W 092°06'2 4.4
2017-Oct-07 17:30N 29°47' W 092°08'2 4.6
2017-Oct-07 17:00N 29°47' W 092°11'2 3.1
2017-Oct-07 16:30N 29°47' W 092°12'1 1.9
2017-Oct-07 16:00N 29°48' W 092°13'1 2.0
2017-Oct-07 15:30N 29°48' W 092°14'0 0.0
2017-Oct-07 15:01N 29°48' W 092°14'0 0.1
2017-Oct-07 14:30N 29°48' W 092°14'1 2.8
2017-Oct-07 14:00N 29°48' W 092°16'2 4.5
2017-Oct-07 13:30N 29°50' W 092°18'3 4.5
2017-Oct-07 12:55N 29°51' W 092°21'33 4.3
2017-Oct-07 05:15N 29°56' W 092°58'1 4.8
2017-Oct-07 05:00N 29°56' W 092°59'2 4.8
2017-Oct-07 04:31N 29°56' W 093°02'2 4.7
2017-Oct-07 04:01N 29°56' W 093°05'2 4.7
2017-Oct-07 03:30N 29°56' W 093°08'2 4.0
2017-Oct-07 03:00N 29°56' W 093°10'2 4.7
2017-Oct-07 02:30N 29°58' W 093°12'2 4.8
2017-Oct-07 02:00N 30°00' W 093°13'2 3.9
2017-Oct-07 01:30N 30°02' W 093°15'1 2.4
2017-Oct-07 01:00N 30°03' W 093°16'2 3.6
2017-Oct-07 00:30N 30°04' W 093°16'2 3.2
2017-Oct-07 00:00N 30°05' W 093°18'1 1.5
2017-Oct-06 23:30N 30°06' W 093°18'1 1.5
2017-Oct-06 23:00N 30°06' W 093°19'0 0.1
2017-Oct-06 22:31N 30°06' W 093°19'0 0.3
2017-Oct-06 22:00N 30°06' W 093°19'2 4.3
2017-Oct-06 21:30N 30°08' W 093°20'3 5.5
2017-Oct-06 21:00N 30°11' W 093°19'3 5.6
2017-Oct-06 20:30N 30°13' W 093°17'0 0.7
2017-Oct-06 20:00N 30°13' W 093°17'0 0.0
2017-Oct-06 19:30N 30°13' W 093°17'0 0.0
2017-Oct-06 19:00N 30°13' W 093°17'0 0.0
2017-Oct-06 17:34N 30°13' W 093°17'0 1.3
2017-Oct-06 17:30N 30°13' W 093°17'0 0.1
2017-Oct-06 16:46N 30°13' W 093°17'0 0.0
2017-Oct-06 16:29N 30°13' W 093°17'1 0.8
2017-Oct-06 15:52N 30°13' W 093°17'0 0.2
2017-Oct-06 15:29N 30°13' W 093°17'0 0.0
2017-Oct-06 14:49N 30°13' W 093°17'0 0.0
2017-Oct-06 14:29N 30°13' W 093°17'0 0.0
2017-Oct-06 13:58N 30°13' W 093°17'0 0.0
2017-Oct-06 13:17N 30°13' W 093°17'0 0.0
2017-Oct-06 12:49N 30°13' W 093°17'0 0.0
2017-Oct-06 12:20N 30°13' W 093°17'0 0.0
2017-Oct-06 11:56N 30°13' W 093°17'0 0.0
2017-Oct-06 11:29N 30°13' W 093°17'0 0.0
2017-Oct-06 11:00N 30°13' W 093°17'0 0.0
2017-Oct-06 10:29N 30°13' W 093°17'0 0.6
2017-Oct-06 10:00N 30°13' W 093°17'0 0.2
2017-Oct-06 09:30N 30°13' W 093°17'3 5.3
2017-Oct-06 09:00N 30°11' W 093°19'5 7.7
2017-Oct-06 08:21N 30°06' W 093°20'1 2.3
2017-Oct-06 07:58N 30°05' W 093°20'0 0.4
2017-Oct-06 07:13N 30°05' W 093°20'0 0.0
2017-Oct-06 07:00N 30°05' W 093°20'0 0.0
2017-Oct-06 06:30N 30°05' W 093°20'0 0.6
2017-Oct-06 06:00N 30°05' W 093°20'2 3.8
2017-Oct-06 05:29N 30°05' W 093°18'1 2.0
2017-Oct-06 04:59N 30°05' W 093°17'1 1.6
2017-Oct-06 04:28N 30°04' W 093°16'0 0.1
2017-Oct-06 03:59N 30°04' W 093°16'0 0.0
2017-Oct-06 03:30N 30°04' W 093°16'0 0.0
2017-Oct-06 02:59N 30°04' W 093°16'3 5.2
2017-Oct-06 02:30N 30°02' W 093°14'3 5.2
2017-Oct-06 01:59N 29°59' W 093°13'2 3.9
2017-Oct-06 01:29N 29°58' W 093°11'3 6.4
2017-Oct-06 01:00N 29°56' W 093°09'3 6.5
2017-Oct-06 00:28N 29°56' W 093°05'38 6.0
2017-Oct-05 18:08N 29°51' W 092°21'1 6.4
2017-Oct-05 17:59N 29°51' W 092°20'3 5.7
2017-Oct-05 17:30N 29°49' W 092°17'3 6.7
2017-Oct-05 17:00N 29°48' W 092°14'6 3.9
2017-Oct-05 15:30N 29°47' W 092°07'3 6.7
2017-Oct-05 15:00N 29°49' W 092°03'  
Track history (hours):
 
Tides and Currents Weather Stations Pressure Air Temp Water Temp Dewpoint Dewpoint Depression Visibility Wind Speed Wind Dir Waves Ship Positions

Mark Shell

Owner: Kirby Inland Marine LP, Houston, TX. More information available from US FCC via Universal Licensing System and Coast Guard Vessel Documentation Center.

Last reported at 2017-Oct-11 00:00 UTC. Time now 2017-Oct-17 20:32 UTC.
Position N 32°28' W 091°07'.

Length 213 m; draft 3 m.

Type: . MMSI: 367728680.

Date/timePositionNaut miles runAvg speedWind from/ knotsBaromVisibWave heightAir tempDewpointWater temp
2017-Oct-11 00:00N 32°28' W 091°07'3 5.1
2017-Oct-10 23:30N 32°27' W 091°04'2 4.8
2017-Oct-10 23:01N 32°26' W 091°02'2 4.2
2017-Oct-10 22:30N 32°25' W 090°60'3 5.6
2017-Oct-10 22:00N 32°22' W 091°00'3 5.3
2017-Oct-10 21:31N 32°21' W 090°58'2 4.5
2017-Oct-10 21:00N 32°21' W 090°55'2 3.8
2017-Oct-10 20:30N 32°19' W 090°54'3 5.2
2017-Oct-10 20:00N 32°17' W 090°57'3 5.2
2017-Oct-10 19:31N 32°15' W 090°59'3 6.0
2017-Oct-10 19:00N 32°12' W 090°59'3 5.2
2017-Oct-10 18:30N 32°10' W 091°00'2 4.7
2017-Oct-10 18:00N 32°07' W 091°01'2 4.1
2017-Oct-10 17:30N 32°08' W 091°03'2 4.1
2017-Oct-10 17:00N 32°08' W 091°06'6 3.2
2017-Oct-10 15:13N 32°03' W 091°03'2 5.5
2017-Oct-10 14:53N 32°01' W 091°04'  
2017-Oct-07 19:09N 29°50' W 091°60'1 5.6
2017-Oct-07 19:00N 29°50' W 092°01'3 5.1
2017-Oct-07 18:30N 29°49' W 092°03'2 4.5
2017-Oct-07 18:00N 29°48' W 092°06'2 4.4
2017-Oct-07 17:30N 29°47' W 092°08'2 4.6
2017-Oct-07 17:00N 29°47' W 092°11'2 3.1
2017-Oct-07 16:30N 29°47' W 092°12'1 1.9
2017-Oct-07 16:00N 29°48' W 092°13'1 2.0
2017-Oct-07 15:30N 29°48' W 092°14'0 0.0
2017-Oct-07 15:01N 29°48' W 092°14'0 0.1
2017-Oct-07 14:30N 29°48' W 092°14'1 2.8
2017-Oct-07 14:00N 29°48' W 092°16'2 4.5
2017-Oct-07 13:30N 29°50' W 092°18'3 4.5
2017-Oct-07 12:55N 29°51' W 092°21'33 4.3
2017-Oct-07 05:15N 29°56' W 092°58'1 4.8
2017-Oct-07 05:00N 29°56' W 092°59'2 4.8
2017-Oct-07 04:31N 29°56' W 093°02'2 4.7
2017-Oct-07 04:01N 29°56' W 093°05'2 4.7
2017-Oct-07 03:30N 29°56' W 093°08'2 4.0
2017-Oct-07 03:00N 29°56' W 093°10'2 4.7
2017-Oct-07 02:30N 29°58' W 093°12'2 4.8
2017-Oct-07 02:00N 30°00' W 093°13'2 3.9
2017-Oct-07 01:30N 30°02' W 093°15'1 2.4
2017-Oct-07 01:00N 30°03' W 093°16'2 3.6
2017-Oct-07 00:30N 30°04' W 093°16'2 3.2
2017-Oct-07 00:00N 30°05' W 093°18'1 1.5
2017-Oct-06 23:30N 30°06' W 093°18'1 1.5
2017-Oct-06 23:00N 30°06' W 093°19'0 0.1
2017-Oct-06 22:31N 30°06' W 093°19'0 0.3
2017-Oct-06 22:00N 30°06' W 093°19'2 4.3
2017-Oct-06 21:30N 30°08' W 093°20'3 5.5
2017-Oct-06 21:00N 30°11' W 093°19'3 5.6
2017-Oct-06 20:30N 30°13' W 093°17'0 0.7
2017-Oct-06 20:00N 30°13' W 093°17'0 0.0
2017-Oct-06 19:30N 30°13' W 093°17'0 0.0
2017-Oct-06 19:00N 30°13' W 093°17'0 0.0
2017-Oct-06 17:34N 30°13' W 093°17'0 1.3
2017-Oct-06 17:30N 30°13' W 093°17'0 0.1
2017-Oct-06 16:46N 30°13' W 093°17'0 0.0
2017-Oct-06 16:29N 30°13' W 093°17'1 0.8
2017-Oct-06 15:52N 30°13' W 093°17'0 0.2
2017-Oct-06 15:29N 30°13' W 093°17'0 0.0
2017-Oct-06 14:49N 30°13' W 093°17'0 0.0
2017-Oct-06 14:29N 30°13' W 093°17'0 0.0
2017-Oct-06 13:58N 30°13' W 093°17'0 0.0
2017-Oct-06 13:17N 30°13' W 093°17'0 0.0
2017-Oct-06 12:49N 30°13' W 093°17'0 0.0
2017-Oct-06 12:20N 30°13' W 093°17'0 0.0
2017-Oct-06 11:56N 30°13' W 093°17'0 0.0
2017-Oct-06 11:29N 30°13' W 093°17'0 0.0
2017-Oct-06 11:00N 30°13' W 093°17'0 0.0
2017-Oct-06 10:29N 30°13' W 093°17'0 0.6
2017-Oct-06 10:00N 30°13' W 093°17'0 0.2
2017-Oct-06 09:30N 30°13' W 093°17'3 5.3
2017-Oct-06 09:00N 30°11' W 093°19'5 7.7
2017-Oct-06 08:21N 30°06' W 093°20'1 2.3
2017-Oct-06 07:58N 30°05' W 093°20'0 0.4
2017-Oct-06 07:13N 30°05' W 093°20'0 0.0
2017-Oct-06 07:00N 30°05' W 093°20'0 0.0
2017-Oct-06 06:30N 30°05' W 093°20'0 0.6
2017-Oct-06 06:00N 30°05' W 093°20'2 3.8
2017-Oct-06 05:29N 30°05' W 093°18'1 2.0
2017-Oct-06 04:59N 30°05' W 093°17'1 1.6
2017-Oct-06 04:28N 30°04' W 093°16'0 0.1
2017-Oct-06 03:59N 30°04' W 093°16'0 0.0
2017-Oct-06 03:30N 30°04' W 093°16'0 0.0
2017-Oct-06 02:59N 30°04' W 093°16'3 5.2
2017-Oct-06 02:30N 30°02' W 093°14'3 5.2
2017-Oct-06 01:59N 29°59' W 093°13'2 3.9
2017-Oct-06 01:29N 29°58' W 093°11'3 6.4
2017-Oct-06 01:00N 29°56' W 093°09'3 6.5
2017-Oct-06 00:28N 29°56' W 093°05'38 6.0
2017-Oct-05 18:08N 29°51' W 092°21'1 6.4
2017-Oct-05 17:59N 29°51' W 092°20'3 5.7
2017-Oct-05 17:30N 29°49' W 092°17'3 6.7
2017-Oct-05 17:00N 29°48' W 092°14'6 3.9
2017-Oct-05 15:30N 29°47' W 092°07'3 6.7
2017-Oct-05 15:00N 29°49' W 092°03'  

Dump ship's entire track history